sensor_id;sensor_type;location;lat;lon;timestamp;P1;durP1;ratioP1;P2;durP2;ratioP2
45863;SDS011;31579;52.354;16.974;2023-04-06T00:01:39;42.50;;;18.00;;
45863;SDS011;31579;52.354;16.974;2023-04-06T00:06:38;41.30;;;15.80;;
45863;SDS011;31579;52.354;16.974;2023-04-06T00:11:37;41.30;;;15.80;;
45863;SDS011;31579;52.354;16.974;2023-04-06T00:16:38;38.30;;;15.30;;
45863;SDS011;31579;52.354;16.974;2023-04-06T00:21:37;38.30;;;15.30;;
45863;SDS011;31579;52.354;16.974;2023-04-06T00:26:38;37.10;;;16.20;;
45863;SDS011;31579;52.354;16.974;2023-04-06T00:31:38;37.10;;;16.20;;
45863;SDS011;31579;52.354;16.974;2023-04-06T00:36:37;39.60;;;15.50;;
45863;SDS011;31579;52.354;16.974;2023-04-06T00:41:38;39.60;;;15.50;;
45863;SDS011;31579;52.354;16.974;2023-04-06T00:46:38;37.60;;;16.00;;
45863;SDS011;31579;52.354;16.974;2023-04-06T00:51:37;37.60;;;16.00;;
45863;SDS011;31579;52.354;16.974;2023-04-06T00:56:38;49.20;;;21.30;;
45863;SDS011;31579;52.354;16.974;2023-04-06T01:01:42;49.20;;;21.30;;
45863;SDS011;31579;52.354;16.974;2023-04-06T01:06:38;52.50;;;23.80;;
45863;SDS011;31579;52.354;16.974;2023-04-06T01:15:04;52.10;;;20.10;;
45863;SDS011;31579;52.354;16.974;2023-04-06T01:20:04;52.10;;;20.10;;
45863;SDS011;31579;52.354;16.974;2023-04-06T01:25:04;39.50;;;18.60;;
45863;SDS011;31579;52.354;16.974;2023-04-06T01:30:04;39.50;;;18.60;;
45863;SDS011;31579;52.354;16.974;2023-04-06T01:35:04;38.20;;;18.40;;
45863;SDS011;31579;52.354;16.974;2023-04-06T01:40:04;38.20;;;18.40;;
45863;SDS011;31579;52.354;16.974;2023-04-06T01:45:04;39.30;;;18.20;;
45863;SDS011;31579;52.354;16.974;2023-04-06T01:50:08;39.30;;;18.20;;
45863;SDS011;31579;52.354;16.974;2023-04-06T01:55:04;49.60;;;21.40;;
45863;SDS011;31579;52.354;16.974;2023-04-06T02:00:04;49.60;;;21.40;;
45863;SDS011;31579;52.354;16.974;2023-04-06T02:05:04;46.40;;;19.40;;
45863;SDS011;31579;52.354;16.974;2023-04-06T02:10:10;46.40;;;19.40;;
45863;SDS011;31579;52.354;16.974;2023-04-06T02:15:04;43.80;;;20.30;;
45863;SDS011;31579;52.354;16.974;2023-04-06T02:20:04;43.80;;;20.30;;
45863;SDS011;31579;52.354;16.974;2023-04-06T02:25:04;45.50;;;21.40;;
45863;SDS011;31579;52.354;16.974;2023-04-06T02:30:05;45.50;;;21.40;;
45863;SDS011;31579;52.354;16.974;2023-04-06T02:35:04;48.70;;;22.20;;
45863;SDS011;31579;52.354;16.974;2023-04-06T02:40:04;48.70;;;22.20;;
45863;SDS011;31579;52.354;16.974;2023-04-06T02:45:04;52.10;;;22.40;;
45863;SDS011;31579;52.354;16.974;2023-04-06T02:50:04;52.10;;;22.40;;
45863;SDS011;31579;52.354;16.974;2023-04-06T02:55:04;52.10;;;23.10;;
45863;SDS011;31579;52.354;16.974;2023-04-06T03:00:04;52.10;;;23.10;;
45863;SDS011;31579;52.354;16.974;2023-04-06T03:05:04;40.00;;;19.60;;
45863;SDS011;31579;52.354;16.974;2023-04-06T03:10:04;40.00;;;19.60;;
45863;SDS011;31579;52.354;16.974;2023-04-06T03:15:04;45.30;;;21.10;;
45863;SDS011;31579;52.354;16.974;2023-04-06T03:20:04;45.30;;;21.10;;
45863;SDS011;31579;52.354;16.974;2023-04-06T03:25:04;50.00;;;22.50;;
45863;SDS011;31579;52.354;16.974;2023-04-06T03:30:04;50.00;;;22.50;;
45863;SDS011;31579;52.354;16.974;2023-04-06T03:35:04;50.00;;;22.20;;
45863;SDS011;31579;52.354;16.974;2023-04-06T03:40:04;50.00;;;22.20;;
45863;SDS011;31579;52.354;16.974;2023-04-06T03:45:04;56.10;;;21.80;;
45863;SDS011;31579;52.354;16.974;2023-04-06T03:50:04;56.10;;;21.80;;
45863;SDS011;31579;52.354;16.974;2023-04-06T03:55:04;51.40;;;21.20;;
45863;SDS011;31579;52.354;16.974;2023-04-06T04:00:04;51.40;;;21.20;;
45863;SDS011;31579;52.354;16.974;2023-04-06T04:02:38;61.60;;;25.00;;
45863;SDS011;31579;52.354;16.974;2023-04-06T04:07:36;61.60;;;25.00;;
45863;SDS011;31579;52.354;16.974;2023-04-06T04:12:36;61.60;;;25.00;;
45863;SDS011;31579;52.354;16.974;2023-04-06T04:17:36;52.70;;;23.90;;
45863;SDS011;31579;52.354;16.974;2023-04-06T04:22:36;52.70;;;23.90;;
45863;SDS011;31579;52.354;16.974;2023-04-06T04:27:36;64.10;;;28.00;;
45863;SDS011;31579;52.354;16.974;2023-04-06T04:32:36;64.10;;;28.00;;
45863;SDS011;31579;52.354;16.974;2023-04-06T04:37:36;73.50;;;27.40;;
45863;SDS011;31579;52.354;16.974;2023-04-06T04:42:36;73.50;;;27.40;;
45863;SDS011;31579;52.354;16.974;2023-04-06T04:47:36;62.20;;;27.30;;
45863;SDS011;31579;52.354;16.974;2023-04-06T04:52:37;62.20;;;27.30;;
45863;SDS011;31579;52.354;16.974;2023-04-06T04:57:36;61.40;;;25.30;;
45863;SDS011;31579;52.354;16.974;2023-04-06T05:02:36;61.40;;;25.30;;
45863;SDS011;31579;52.354;16.974;2023-04-06T05:07:36;59.80;;;27.40;;
45863;SDS011;31579;52.354;16.974;2023-04-06T05:09:10;59.80;;;27.40;;
45863;SDS011;31579;52.354;16.974;2023-04-06T05:14:09;46.50;;;21.70;;
45863;SDS011;31579;52.354;16.974;2023-04-06T05:19:09;46.50;;;21.70;;
45863;SDS011;31579;52.354;16.974;2023-04-06T05:24:09;70.50;;;30.70;;
45863;SDS011;31579;52.354;16.974;2023-04-06T05:29:09;70.50;;;30.70;;
45863;SDS011;31579;52.354;16.974;2023-04-06T05:34:09;57.00;;;27.90;;
45863;SDS011;31579;52.354;16.974;2023-04-06T05:39:09;57.00;;;27.90;;
45863;SDS011;31579;52.354;16.974;2023-04-06T05:40:11;57.00;;;27.90;;
45863;SDS011;31579;52.354;16.974;2023-04-06T05:45:09;62.40;;;25.50;;
45863;SDS011;31579;52.354;16.974;2023-04-06T05:50:09;62.40;;;25.50;;
45863;SDS011;31579;52.354;16.974;2023-04-06T05:55:09;59.40;;;24.50;;
45863;SDS011;31579;52.354;16.974;2023-04-06T06:00:09;59.40;;;24.50;;
45863;SDS011;31579;52.354;16.974;2023-04-06T06:05:09;38.70;;;20.40;;
45863;SDS011;31579;52.354;16.974;2023-04-06T06:10:09;38.70;;;20.40;;
45863;SDS011;31579;52.354;16.974;2023-04-06T06:15:09;36.10;;;19.60;;
45863;SDS011;31579;52.354;16.974;2023-04-06T06:20:09;36.10;;;19.60;;
45863;SDS011;31579;52.354;16.974;2023-04-06T06:25:09;37.00;;;17.80;;
45863;SDS011;31579;52.354;16.974;2023-04-06T06:30:09;37.00;;;17.80;;
45863;SDS011;31579;52.354;16.974;2023-04-06T06:35:09;33.30;;;17.20;;
45863;SDS011;31579;52.354;16.974;2023-04-06T06:40:09;33.30;;;17.20;;
45863;SDS011;31579;52.354;16.974;2023-04-06T06:45:09;34.20;;;17.70;;
45863;SDS011;31579;52.354;16.974;2023-04-06T06:50:09;34.20;;;17.70;;
45863;SDS011;31579;52.354;16.974;2023-04-06T06:55:09;29.50;;;15.50;;
45863;SDS011;31579;52.354;16.974;2023-04-06T07:00:09;29.50;;;15.50;;
45863;SDS011;31579;52.354;16.974;2023-04-06T07:05:09;65.40;;;34.00;;
45863;SDS011;31579;52.354;16.974;2023-04-06T07:10:09;65.40;;;34.00;;
45863;SDS011;31579;52.354;16.974;2023-04-06T07:15:12;22.80;;;12.20;;
45863;SDS011;31579;52.354;16.974;2023-04-06T07:20:09;22.80;;;12.20;;
45863;SDS011;31579;52.354;16.974;2023-04-06T07:25:09;23.00;;;11.30;;
45863;SDS011;31579;52.354;16.974;2023-04-06T07:30:09;23.00;;;11.30;;
45863;SDS011;31579;52.354;16.974;2023-04-06T07:35:09;21.60;;;12.00;;
45863;SDS011;31579;52.354;16.974;2023-04-06T07:40:09;21.60;;;12.00;;
45863;SDS011;31579;52.354;16.974;2023-04-06T07:45:09;16.10;;;7.80;;
45863;SDS011;31579;52.354;16.974;2023-04-06T07:50:09;16.10;;;7.80;;
45863;SDS011;31579;52.354;16.974;2023-04-06T07:55:09;14.50;;;7.20;;
45863;SDS011;31579;52.354;16.974;2023-04-06T08:00:09;14.50;;;7.20;;
45863;SDS011;31579;52.354;16.974;2023-04-06T08:05:09;14.60;;;7.90;;
45863;SDS011;31579;52.354;16.974;2023-04-06T08:10:09;14.60;;;7.90;;
45863;SDS011;31579;52.354;16.974;2023-04-06T08:15:09;14.10;;;7.00;;
45863;SDS011;31579;52.354;16.974;2023-04-06T08:20:12;14.10;;;7.00;;
45863;SDS011;31579;52.354;16.974;2023-04-06T08:25:09;12.50;;;7.00;;
45863;SDS011;31579;52.354;16.974;2023-04-06T08:30:09;12.50;;;7.00;;
45863;SDS011;31579;52.354;16.974;2023-04-06T08:40:11;14.20;;;7.80;;
45863;SDS011;31579;52.354;16.974;2023-04-06T08:45:10;12.10;;;7.60;;
45863;SDS011;31579;52.354;16.974;2023-04-06T08:50:10;12.10;;;7.60;;
45863;SDS011;31579;52.354;16.974;2023-04-06T08:55:10;14.50;;;7.60;;
45863;SDS011;31579;52.354;16.974;2023-04-06T09:00:10;14.50;;;7.60;;
45863;SDS011;31579;52.354;16.974;2023-04-06T09:05:10;14.00;;;7.10;;
45863;SDS011;31579;52.354;16.974;2023-04-06T09:10:10;14.00;;;7.10;;
45863;SDS011;31579;52.354;16.974;2023-04-06T09:20:13;14.30;;;6.70;;
45863;SDS011;31579;52.354;16.974;2023-04-06T09:25:17;21.20;;;7.60;;
45863;SDS011;31579;52.354;16.974;2023-04-06T09:30:11;21.20;;;7.60;;
45863;SDS011;31579;52.354;16.974;2023-04-06T09:35:10;12.20;;;6.50;;
45863;SDS011;31579;52.354;16.974;2023-04-06T09:40:11;12.20;;;6.50;;
45863;SDS011;31579;52.354;16.974;2023-04-06T09:45:10;13.90;;;6.40;;
45863;SDS011;31579;52.354;16.974;2023-04-06T09:50:05;13.90;;;6.40;;
45863;SDS011;31579;52.354;16.974;2023-04-06T09:55:03;11.70;;;6.70;;
45863;SDS011;31579;52.354;16.974;2023-04-06T10:00:03;11.70;;;6.70;;
45863;SDS011;31579;52.354;16.974;2023-04-06T10:05:05;13.30;;;6.60;;
45863;SDS011;31579;52.354;16.974;2023-04-06T10:10:03;13.30;;;6.60;;
45863;SDS011;31579;52.354;16.974;2023-04-06T10:15:03;15.20;;;6.80;;
45863;SDS011;31579;52.354;16.974;2023-04-06T10:25:02;22.20;;;7.40;;
45863;SDS011;31579;52.354;16.974;2023-04-06T10:30:03;22.20;;;7.40;;
45863;SDS011;31579;52.354;16.974;2023-04-06T10:40:02;8.70;;;4.90;;
45863;SDS011;31579;52.354;16.974;2023-04-06T10:45:03;9.40;;;5.20;;
45863;SDS011;31579;52.354;16.974;2023-04-06T10:50:05;9.40;;;5.20;;
45863;SDS011;31579;52.354;16.974;2023-04-06T10:55:02;13.30;;;5.60;;
45863;SDS011;31579;52.354;16.974;2023-04-06T11:00:04;13.30;;;5.60;;
45863;SDS011;31579;52.354;16.974;2023-04-06T11:05:02;11.50;;;5.90;;
45863;SDS011;31579;52.354;16.974;2023-04-06T11:10:02;11.50;;;5.90;;
45863;SDS011;31579;52.354;16.974;2023-04-06T11:15:02;11.30;;;6.10;;
45863;SDS011;31579;52.354;16.974;2023-04-06T11:20:03;11.30;;;6.10;;
45863;SDS011;31579;52.354;16.974;2023-04-06T11:27:03;10.00;;;5.60;;
45863;SDS011;31579;52.354;16.974;2023-04-06T11:32:04;11.70;;;5.60;;
45863;SDS011;31579;52.354;16.974;2023-04-06T11:37:03;11.70;;;5.60;;
45863;SDS011;31579;52.354;16.974;2023-04-06T11:42:03;9.00;;;5.30;;
45863;SDS011;31579;52.354;16.974;2023-04-06T11:47:03;9.00;;;5.30;;
45863;SDS011;31579;52.354;16.974;2023-04-06T11:52:14;9.00;;;4.90;;
45863;SDS011;31579;52.354;16.974;2023-04-06T11:57:03;9.00;;;4.90;;
45863;SDS011;31579;52.354;16.974;2023-04-06T12:02:03;11.50;;;5.20;;
45863;SDS011;31579;52.354;16.974;2023-04-06T12:07:04;11.50;;;5.20;;
45863;SDS011;31579;52.354;16.974;2023-04-06T12:12:03;9.20;;;4.80;;
45863;SDS011;31579;52.354;16.974;2023-04-06T12:17:03;9.20;;;4.80;;
45863;SDS011;31579;52.354;16.974;2023-04-06T12:22:03;10.10;;;4.70;;
45863;SDS011;31579;52.354;16.974;2023-04-06T12:27:03;10.10;;;4.70;;
45863;SDS011;31579;52.354;16.974;2023-04-06T12:32:03;9.20;;;5.00;;
45863;SDS011;31579;52.354;16.974;2023-04-06T12:37:03;9.20;;;5.00;;
45863;SDS011;31579;52.354;16.974;2023-04-06T12:42:03;8.00;;;5.20;;
45863;SDS011;31579;52.354;16.974;2023-04-06T12:47:03;8.00;;;5.20;;
45863;SDS011;31579;52.354;16.974;2023-04-06T12:52:03;8.00;;;4.90;;
45863;SDS011;31579;52.354;16.974;2023-04-06T12:57:03;8.00;;;4.90;;
45863;SDS011;31579;52.354;16.974;2023-04-06T13:02:03;10.30;;;5.30;;
45863;SDS011;31579;52.354;16.974;2023-04-06T13:07:03;10.30;;;5.30;;
45863;SDS011;31579;52.354;16.974;2023-04-06T13:12:07;10.30;;;5.30;;
45863;SDS011;31579;52.354;16.974;2023-04-06T13:17:03;11.00;;;5.50;;
45863;SDS011;31579;52.354;16.974;2023-04-06T13:22:03;9.80;;;5.30;;
45863;SDS011;31579;52.354;16.974;2023-04-06T13:27:04;9.80;;;5.30;;
45863;SDS011;31579;52.354;16.974;2023-04-06T13:32:03;14.00;;;5.40;;
45863;SDS011;31579;52.354;16.974;2023-04-06T13:37:03;14.00;;;5.40;;
45863;SDS011;31579;52.354;16.974;2023-04-06T13:42:03;10.80;;;5.70;;
45863;SDS011;31579;52.354;16.974;2023-04-06T13:47:03;10.80;;;5.70;;
45863;SDS011;31579;52.354;16.974;2023-04-06T13:52:03;9.40;;;5.10;;
45863;SDS011;31579;52.354;16.974;2023-04-06T13:57:03;9.40;;;5.10;;
45863;SDS011;31579;52.354;16.974;2023-04-06T14:02:03;10.00;;;5.70;;
45863;SDS011;31579;52.354;16.974;2023-04-06T14:07:03;10.00;;;5.70;;
45863;SDS011;31579;52.354;16.974;2023-04-06T14:12:03;13.40;;;6.70;;
45863;SDS011;31579;52.354;16.974;2023-04-06T14:17:03;13.40;;;6.70;;
45863;SDS011;31579;52.354;16.974;2023-04-06T14:22:03;11.00;;;6.00;;
45863;SDS011;31579;52.354;16.974;2023-04-06T14:27:03;11.00;;;6.00;;
45863;SDS011;31579;52.354;16.974;2023-04-06T14:32:07;10.30;;;6.30;;
45863;SDS011;31579;52.354;16.974;2023-04-06T14:37:03;10.30;;;6.30;;
45863;SDS011;31579;52.354;16.974;2023-04-06T14:42:24;10.70;;;6.10;;
45863;SDS011;31579;52.354;16.974;2023-04-06T14:47:24;10.70;;;6.10;;
45863;SDS011;31579;52.354;16.974;2023-04-06T14:52:24;11.50;;;6.00;;
45863;SDS011;31579;52.354;16.974;2023-04-06T14:57:24;11.50;;;6.00;;
45863;SDS011;31579;52.354;16.974;2023-04-06T15:02:24;11.40;;;6.20;;
45863;SDS011;31579;52.354;16.974;2023-04-06T15:07:27;11.40;;;6.20;;
45863;SDS011;31579;52.354;16.974;2023-04-06T15:12:24;10.60;;;6.00;;
45863;SDS011;31579;52.354;16.974;2023-04-06T15:17:24;10.60;;;6.00;;
45863;SDS011;31579;52.354;16.974;2023-04-06T15:22:24;11.00;;;6.30;;
45863;SDS011;31579;52.354;16.974;2023-04-06T15:27:24;11.00;;;6.30;;
45863;SDS011;31579;52.354;16.974;2023-04-06T15:32:35;10.70;;;6.40;;
45863;SDS011;31579;52.354;16.974;2023-04-06T15:37:33;10.70;;;6.40;;
45863;SDS011;31579;52.354;16.974;2023-04-06T15:42:33;12.50;;;6.50;;
45863;SDS011;31579;52.354;16.974;2023-04-06T15:47:33;12.50;;;6.50;;
45863;SDS011;31579;52.354;16.974;2023-04-06T15:52:33;11.60;;;6.80;;
45863;SDS011;31579;52.354;16.974;2023-04-06T15:57:33;11.60;;;6.80;;
45863;SDS011;31579;52.354;16.974;2023-04-06T16:02:36;11.60;;;6.80;;
45863;SDS011;31579;52.354;16.974;2023-04-06T16:07:33;11.60;;;6.80;;
45863;SDS011;31579;52.354;16.974;2023-04-06T16:12:33;12.00;;;7.00;;
45863;SDS011;31579;52.354;16.974;2023-04-06T16:17:34;12.00;;;7.00;;
45863;SDS011;31579;52.354;16.974;2023-04-06T16:22:33;14.90;;;7.00;;
45863;SDS011;31579;52.354;16.974;2023-04-06T16:27:33;14.90;;;7.00;;
45863;SDS011;31579;52.354;16.974;2023-04-06T16:32:33;11.20;;;6.60;;
45863;SDS011;31579;52.354;16.974;2023-04-06T16:33:36;11.20;;;6.60;;
45863;SDS011;31579;52.354;16.974;2023-04-06T16:38:34;11.20;;;6.60;;
45863;SDS011;31579;52.354;16.974;2023-04-06T16:43:34;12.30;;;6.90;;
45863;SDS011;31579;52.354;16.974;2023-04-06T16:48:34;12.30;;;6.90;;
45863;SDS011;31579;52.354;16.974;2023-04-06T16:53:35;12.00;;;6.90;;
45863;SDS011;31579;52.354;16.974;2023-04-06T16:58:34;12.00;;;6.90;;
45863;SDS011;31579;52.354;16.974;2023-04-06T17:03:38;10.40;;;6.60;;
45863;SDS011;31579;52.354;16.974;2023-04-06T17:08:34;10.40;;;6.60;;
45863;SDS011;31579;52.354;16.974;2023-04-06T17:13:34;13.20;;;6.60;;
45863;SDS011;31579;52.354;16.974;2023-04-06T17:18:34;13.20;;;6.60;;
45863;SDS011;31579;52.354;16.974;2023-04-06T17:23:34;10.10;;;6.10;;
45863;SDS011;31579;52.354;16.974;2023-04-06T17:28:34;10.10;;;6.10;;
45863;SDS011;31579;52.354;16.974;2023-04-06T17:33:34;12.30;;;6.90;;
45863;SDS011;31579;52.354;16.974;2023-04-06T17:38:34;12.30;;;6.90;;
45863;SDS011;31579;52.354;16.974;2023-04-06T17:43:34;16.60;;;7.60;;
45863;SDS011;31579;52.354;16.974;2023-04-06T17:48:34;16.60;;;7.60;;
45863;SDS011;31579;52.354;16.974;2023-04-06T17:53:34;12.50;;;7.10;;
45863;SDS011;31579;52.354;16.974;2023-04-06T17:58:34;12.50;;;7.10;;
45863;SDS011;31579;52.354;16.974;2023-04-06T18:03:34;17.80;;;7.30;;
45863;SDS011;31579;52.354;16.974;2023-04-06T18:08:34;17.80;;;7.30;;
45863;SDS011;31579;52.354;16.974;2023-04-06T18:13:34;13.90;;;6.70;;
45863;SDS011;31579;52.354;16.974;2023-04-06T18:18:34;13.90;;;6.70;;
45863;SDS011;31579;52.354;16.974;2023-04-06T18:23:34;12.40;;;6.30;;
45863;SDS011;31579;52.354;16.974;2023-04-06T18:28:34;12.40;;;6.30;;
45863;SDS011;31579;52.354;16.974;2023-04-06T18:33:34;14.10;;;6.50;;
45863;SDS011;31579;52.354;16.974;2023-04-06T18:38:42;14.10;;;6.50;;
45863;SDS011;31579;52.354;16.974;2023-04-06T18:43:34;15.90;;;7.40;;
45863;SDS011;31579;52.354;16.974;2023-04-06T18:48:34;15.90;;;7.40;;
45863;SDS011;31579;52.354;16.974;2023-04-06T18:53:34;13.60;;;7.50;;
45863;SDS011;31579;52.354;16.974;2023-04-06T18:58:34;13.60;;;7.50;;
45863;SDS011;31579;52.354;16.974;2023-04-06T19:03:34;21.40;;;9.00;;
45863;SDS011;31579;52.354;16.974;2023-04-06T19:08:34;21.40;;;9.00;;
45863;SDS011;31579;52.354;16.974;2023-04-06T19:13:34;20.80;;;10.30;;
45863;SDS011;31579;52.354;16.974;2023-04-06T19:18:35;20.80;;;10.30;;
45863;SDS011;31579;52.354;16.974;2023-04-06T19:23:34;18.70;;;10.50;;
45863;SDS011;31579;52.354;16.974;2023-04-06T19:28:34;18.70;;;10.50;;
45863;SDS011;31579;52.354;16.974;2023-04-06T19:33:34;21.10;;;11.30;;
45863;SDS011;31579;52.354;16.974;2023-04-06T19:38:34;21.10;;;11.30;;
45863;SDS011;31579;52.354;16.974;2023-04-06T19:43:36;25.90;;;12.40;;
45863;SDS011;31579;52.354;16.974;2023-04-06T19:48:34;25.90;;;12.40;;
45863;SDS011;31579;52.354;16.974;2023-04-06T19:53:34;22.40;;;12.00;;
45863;SDS011;31579;52.354;16.974;2023-04-06T19:58:35;22.40;;;12.00;;
45863;SDS011;31579;52.354;16.974;2023-04-06T20:03:34;21.30;;;11.50;;
45863;SDS011;31579;52.354;16.974;2023-04-06T20:08:34;21.30;;;11.50;;
45863;SDS011;31579;52.354;16.974;2023-04-06T20:13:35;23.80;;;11.90;;
45863;SDS011;31579;52.354;16.974;2023-04-06T20:18:34;23.80;;;11.90;;
45863;SDS011;31579;52.354;16.974;2023-04-06T20:23:34;18.20;;;10.00;;
45863;SDS011;31579;52.354;16.974;2023-04-06T20:28:34;18.20;;;10.00;;
45863;SDS011;31579;52.354;16.974;2023-04-06T20:33:34;24.10;;;11.40;;
45863;SDS011;31579;52.354;16.974;2023-04-06T20:38:34;24.10;;;11.40;;
45863;SDS011;31579;52.354;16.974;2023-04-06T20:43:34;24.20;;;13.00;;
45863;SDS011;31579;52.354;16.974;2023-04-06T20:48:34;24.20;;;13.00;;
45863;SDS011;31579;52.354;16.974;2023-04-06T20:53:34;26.20;;;12.30;;
45863;SDS011;31579;52.354;16.974;2023-04-06T20:58:34;26.20;;;12.30;;
45863;SDS011;31579;52.354;16.974;2023-04-06T21:03:34;23.20;;;11.50;;
45863;SDS011;31579;52.354;16.974;2023-04-06T21:08:34;23.20;;;11.50;;
45863;SDS011;31579;52.354;16.974;2023-04-06T21:13:34;21.60;;;9.70;;
45863;SDS011;31579;52.354;16.974;2023-04-06T21:18:38;21.60;;;9.70;;
45863;SDS011;31579;52.354;16.974;2023-04-06T21:23:34;19.70;;;9.60;;
45863;SDS011;31579;52.354;16.974;2023-04-06T21:30:10;19.70;;;9.60;;
45863;SDS011;31579;52.354;16.974;2023-04-06T21:35:09;16.40;;;8.90;;
45863;SDS011;31579;52.354;16.974;2023-04-06T21:40:09;16.40;;;8.90;;
45863;SDS011;31579;52.354;16.974;2023-04-06T21:45:09;19.60;;;8.20;;
45863;SDS011;31579;52.354;16.974;2023-04-06T21:50:09;19.60;;;8.20;;
45863;SDS011;31579;52.354;16.974;2023-04-06T21:55:09;19.60;;;8.30;;
45863;SDS011;31579;52.354;16.974;2023-04-06T22:00:13;19.60;;;8.30;;
45863;SDS011;31579;52.354;16.974;2023-04-06T22:05:09;15.50;;;7.70;;
45863;SDS011;31579;52.354;16.974;2023-04-06T22:10:09;15.50;;;7.70;;
45863;SDS011;31579;52.354;16.974;2023-04-06T22:15:11;14.60;;;6.50;;
45863;SDS011;31579;52.354;16.974;2023-04-06T22:20:09;14.60;;;6.50;;
45863;SDS011;31579;52.354;16.974;2023-04-06T22:25:09;13.30;;;5.70;;
45863;SDS011;31579;52.354;16.974;2023-04-06T22:30:09;13.30;;;5.70;;
45863;SDS011;31579;52.354;16.974;2023-04-06T22:31:04;11.50;;;4.90;;
45863;SDS011;31579;52.354;16.974;2023-04-06T22:36:03;11.50;;;4.90;;
45863;SDS011;31579;52.354;16.974;2023-04-06T22:41:03;11.50;;;5.60;;
45863;SDS011;31579;52.354;16.974;2023-04-06T22:46:03;11.50;;;5.60;;
45863;SDS011;31579;52.354;16.974;2023-04-06T22:51:03;13.50;;;5.90;;
45863;SDS011;31579;52.354;16.974;2023-04-06T22:52:41;13.50;;;5.90;;
45863;SDS011;31579;52.354;16.974;2023-04-06T22:57:39;13.50;;;5.90;;
45863;SDS011;31579;52.354;16.974;2023-04-06T23:02:39;12.20;;;5.20;;
45863;SDS011;31579;52.354;16.974;2023-04-06T23:07:39;12.20;;;5.20;;
45863;SDS011;31579;52.354;16.974;2023-04-06T23:14:56;12.20;;;5.20;;
45863;SDS011;31579;52.354;16.974;2023-04-06T23:19:56;12.20;;;5.20;;
45863;SDS011;31579;52.354;16.974;2023-04-06T23:24:56;11.30;;;4.40;;
45863;SDS011;31579;52.354;16.974;2023-04-06T23:29:56;11.30;;;4.40;;
45863;SDS011;31579;52.354;16.974;2023-04-06T23:34:56;8.50;;;4.30;;
45863;SDS011;31579;52.354;16.974;2023-04-06T23:40:01;8.50;;;4.30;;
45863;SDS011;31579;52.354;16.974;2023-04-06T23:44:56;8.80;;;4.20;;
45863;SDS011;31579;52.354;16.974;2023-04-06T23:49:57;8.80;;;4.20;;
45863;SDS011;31579;52.354;16.974;2023-04-06T23:54:58;8.70;;;4.10;;
